This demonstration page uses our WeatherBlox Daily Observations layout. Learn more.

41.55636, -103.73856

Hourly Observations for January 12, 2020

Temp ( °F °C ) Dew Point ( °F °C ) Humidity (%) Winds ( mph kmh ) Pressure ( in mb ) Visibility ( mi km ) Precip ( " mm )
12:58 am 00:58 Mostly Cloudy 33 0.8 17 -8.4 51 51 NW 14 22 29.89 1012 10 16.0934 0 0
1:58 am 01:58 Mostly Cloudy 31 -0.5 16 -9.1 53 53 NW 13 20 29.91 1013 10 16.0934 0 0
2:58 am 02:58 Mostly Cloudy 30 -1 15 -9.7 52 52 NW 14 22 29.91 1013 10 16.0934 0 0
3:58 am 03:58 Mostly Cloudy 28 -2.2 15 -9.3 59 59 W 6 9 29.9 1013 10 16.0934 0 0
4:58 am 04:58 Clear 22 -5.4 13 -10.3 69 69 SW 7 11 29.93 1013 10 16.0934 0 0
5:58 am 05:58 Clear 23 -4.9 13 -10.3 66 66 SSW 9 15 29.91 1013 10 16.0934 0 0
6:58 am 06:58 Partly Cloudy 20 -6.7 13 -10.5 75 75 SSW 6 9 29.9 1013 10 16.0934 0 0
7:58 am 07:58 Clear 22 -5.6 13 -10.4 69 69 SSW 13 20 29.88 1012 10 16.0934 0 0
8:58 am 08:58 Partly Cloudy 21 -6.1 12 -10.9 69 69 SW 7 11 29.85 1011 10 16.0934 0 0
9:58 am 09:58 Mostly Clear 20 -6.9 13 -10.8 74 74 SW 9 15 29.89 1012 10 16.0934 0 0
10:58 am 10:58 Mostly Clear 18 -7.7 13 -10.8 79 79 WSW 7 11 29.9 1013 10 16.0934 0 0
11:58 am 11:58 Clear 23 -5.2 14 -10 69 69 W 7 11 29.91 1013 10 16.0934 0 0
12:58 pm 12:58 Clear 19 -7 13 -10.6 76 76 WSW 13 20 29.92 1013 10 16.0934 0 0
1:58 pm 13:58 Clear 17 -8.4 12 -11.3 80 80 WSW 9 15 29.93 1014 10 16.0934 0 0
2:58 pm 14:58 Sunny 21 -5.9 13 -10.5 70 70 W 12 19 29.93 1014 10 16.0934 0 0
3:58 pm 15:58 Sunny 29 -1.4 19 -7.4 64 64 W 10 17 29.93 1014 10 16.0934 0 0
4:58 pm 16:58 Sunny 35 1.5 17 -8.5 48 48 WNW 17 28 29.94 1014 10 16.0934 0 0
5:58 pm 17:58 Sunny 38 3.1 16 -9 41 41 NW 16 26 29.92 1013 10 16.0934 0 0
6:58 pm 18:58 Sunny 39 4 14 -10.1 35 35 NW 23 37 29.9 1012 10 16.0934 0 0
7:58 pm 19:58 Sunny 40 4.6 12 -10.9 32 32 WNW 22 35 29.88 1012 10 16.0934 0 0
8:58 pm 20:58 Sunny 40 4.6 11 -11.6 30 30 NW 23 37 29.88 1012 10 16.0934 0 0
9:58 pm 21:58 Sunny 39 4 11 -11.5 32 32 NW 22 35 29.9 1012 10 16.0934 0 0
10:58 pm 22:58 Mostly Sunny 34 1 15 -9.7 45 45 WNW 10 17 29.94 1014 10 16.0934 0 0
11:58 pm 23:58 Mostly Cloudy 31 -0.5 14 -9.8 50 50 W 3 6 29.95 1014 10 16.0934 0 0

Powered by AerisWeather